createdAt,value
2023-04-26T00:02:38.699Z,98204.73
2023-04-26T00:05:51.172Z,98197.75
2023-04-26T00:09:04.374Z,98199.31
2023-04-26T00:12:16.822Z,98208.36
2023-04-26T00:15:29.091Z,98201.96
2023-04-26T00:18:41.610Z,98208.79
2023-04-26T00:21:53.615Z,98217.98
2023-04-26T00:25:05.624Z,98216.99
2023-04-26T00:28:17.617Z,98216.75
2023-04-26T00:31:33.016Z,98209.78
2023-04-26T00:34:45.816Z,98217.72
2023-04-26T00:37:59.248Z,98219.79
2023-04-26T00:41:11.406Z,98218.95
2023-04-26T00:44:23.588Z,98215.61
2023-04-26T00:47:37.383Z,98229.29
2023-04-26T00:50:50.851Z,98224.69
2023-04-26T00:54:03.354Z,98221.05
2023-04-26T00:57:17.159Z,98219.40
2023-04-26T01:00:29.869Z,98223.42
2023-04-26T01:17:34.139Z,98241.52
2023-04-26T01:20:52.383Z,98237.49
2023-04-26T01:24:05.310Z,98248.63
2023-04-26T01:27:17.466Z,98247.23
2023-04-26T01:30:30.237Z,98258.37
2023-04-26T01:33:45.097Z,98257.23
2023-04-26T01:36:57.302Z,98264.76
2023-04-26T01:40:11.873Z,98264.31
2023-04-26T01:43:25.208Z,98269.89
2023-04-26T01:46:37.417Z,98266.55
2023-04-26T01:49:50.021Z,98272.39
2023-04-26T01:53:04.898Z,98280.72
2023-04-26T01:56:18.425Z,98282.10
2023-04-26T01:59:30.736Z,98279.30
2023-04-26T02:02:44.600Z,98287.20
2023-04-26T02:05:57.103Z,98291.23
2023-04-26T02:09:09.897Z,98291.77
2023-04-26T02:12:23.942Z,98295.78
2023-04-26T02:15:35.972Z,98292.27
2023-04-26T02:18:50.079Z,98295.05
2023-04-26T02:22:04.275Z,98301.66
2023-04-26T02:25:17.323Z,98302.79
2023-04-26T02:28:29.553Z,98295.25
2023-04-26T02:31:41.679Z,98305.25
2023-04-26T02:34:54.045Z,98307.19
2023-04-26T02:38:07.306Z,98296.88
2023-04-26T02:41:19.625Z,98303.84
2023-04-26T02:44:35.059Z,98305.31
2023-04-26T02:47:48.065Z,98303.66
2023-04-26T02:51:01.286Z,98299.04
2023-04-26T02:54:13.824Z,98305.64
2023-04-26T02:57:26.345Z,98306.06
2023-04-26T03:00:38.633Z,98308.70
2023-04-26T03:03:50.964Z,98306.44
2023-04-26T03:07:03.004Z,98315.58
2023-04-26T03:10:17.090Z,98316.52
2023-04-26T03:13:30.330Z,98315.81
2023-04-26T03:16:48.959Z,98328.56
2023-04-26T03:20:02.699Z,98321.88
2023-04-26T03:23:15.448Z,98329.08
2023-04-26T03:26:27.665Z,98325.73
2023-04-26T03:29:40.633Z,98327.66
2023-04-26T03:32:54.981Z,98336.78
2023-04-26T03:36:07.551Z,98343.98
2023-04-26T03:39:20.415Z,98348.69
2023-04-26T03:42:32.997Z,98351.69
2023-04-26T03:45:45.236Z,98351.69
2023-04-26T03:48:57.414Z,98353.62
2023-04-26T03:52:10.336Z,98363.31
2023-04-26T03:55:22.854Z,98362.50
2023-04-26T03:58:38.195Z,98369.22
2023-04-26T04:01:50.633Z,98370.20
2023-04-26T04:05:02.962Z,98385.53
2023-04-26T04:08:16.072Z,98386.74
2023-04-26T04:11:29.482Z,98381.38
2023-04-26T04:14:41.921Z,98384.82
2023-04-26T04:17:54.535Z,98391.20
2023-04-26T04:21:06.888Z,98390.09
2023-04-26T04:24:20.396Z,98387.72
2023-04-26T04:27:32.788Z,98397.55
2023-04-26T04:30:47.552Z,98405.33
2023-04-26T04:34:00.174Z,98405.81
2023-04-26T04:37:12.280Z,98415.28
2023-04-26T04:40:24.794Z,98414.20
2023-04-26T04:43:37.612Z,98423.91
2023-04-26T04:46:50.839Z,98429.66
2023-04-26T04:50:03.945Z,98423.31
2023-04-26T04:53:17.714Z,98433.86
2023-04-26T04:56:30.369Z,98430.12
2023-04-26T04:59:42.647Z,98430.61
2023-04-26T05:02:55.475Z,98428.69
2023-04-26T05:06:08.813Z,98428.69
2023-04-26T05:09:21.823Z,98436.42
2023-04-26T05:12:35.509Z,98433.41
2023-04-26T05:15:48.086Z,98439.47
2023-04-26T05:19:00.308Z,98433.47
2023-04-26T05:22:13.379Z,98434.80
2023-04-26T05:25:26.141Z,98440.09
2023-04-26T05:28:43.862Z,98446.27
2023-04-26T05:32:01.541Z,98447.86
2023-04-26T05:35:26.516Z,98448.52
2023-04-26T05:38:38.824Z,98452.72
2023-04-26T05:41:51.236Z,98456.40
2023-04-26T05:45:06.920Z,98453.14
2023-04-26T05:48:19.741Z,98455.47
2023-04-26T05:51:32.316Z,98451.70
2023-04-26T05:54:44.643Z,98449.97
2023-04-26T05:57:58.625Z,98449.38
2023-04-26T06:01:12.590Z,98440.39
2023-04-26T06:04:25.079Z,98439.83
2023-04-26T06:07:39.659Z,98432.17
2023-04-26T06:10:51.739Z,98442.89
2023-04-26T06:14:03.957Z,98433.01
2023-04-26T06:17:16.454Z,98435.70
2023-04-26T06:20:29.905Z,98436.72
2023-04-26T06:23:42.004Z,98435.59
2023-04-26T06:26:54.232Z,98431.88
2023-04-26T06:30:07.032Z,98418.68
2023-04-26T06:33:20.251Z,98422.81
2023-04-26T06:36:33.090Z,98410.89
2023-04-26T06:39:45.754Z,98402.84
2023-04-26T06:42:58.381Z,98400.66
2023-04-26T06:46:13.362Z,98404.13
2023-04-26T06:49:26.208Z,98401.73
2023-04-26T06:52:39.240Z,98405.77
2023-04-26T06:55:53.423Z,98409.77
2023-04-26T06:59:10.194Z,98401.67
2023-04-26T07:02:23.985Z,98400.09
2023-04-26T07:05:36.583Z,98399.67
2023-04-26T07:08:48.745Z,98396.09
2023-04-26T07:12:01.536Z,98404.69
2023-04-26T07:15:16.589Z,98402.02
2023-04-26T07:18:28.876Z,98408.52
2023-04-26T07:21:41.060Z,98409.20
2023-04-26T07:24:53.402Z,98413.14
2023-04-26T07:28:05.611Z,98406.84
2023-04-26T07:31:18.011Z,98411.20
2023-04-26T07:34:30.688Z,98397.52
2023-04-26T07:37:42.722Z,98405.47
2023-04-26T07:40:55.148Z,98406.81
2023-04-26T07:44:07.246Z,98419.02
2023-04-26T07:47:22.259Z,98441.38
2023-04-26T07:50:34.748Z,98441.25
2023-04-26T07:53:47.039Z,98429.05
2023-04-26T07:56:59.327Z,98441.55
2023-04-26T08:00:14.552Z,98451.64
2023-04-26T08:03:27.617Z,98441.98
2023-04-26T08:06:40.028Z,98445.50
2023-04-26T08:09:52.219Z,98439.67
2023-04-26T08:13:04.579Z,98446.27
2023-04-26T08:16:17.026Z,98438.63
2023-04-26T08:19:31.448Z,98433.65
2023-04-26T08:22:43.866Z,98424.05
2023-04-26T08:25:56.057Z,98442.42
2023-04-26T08:29:09.150Z,98433.49
2023-04-26T08:32:22.387Z,98429.17
2023-04-26T08:35:35.042Z,98454.84
2023-04-26T08:38:47.240Z,98444.48
2023-04-26T08:42:04.702Z,98460.84
2023-04-26T08:45:18.831Z,98442.48
2023-04-26T08:48:32.996Z,98430.05
2023-04-26T08:51:46.230Z,98438.02
2023-04-26T08:55:01.205Z,98445.73
2023-04-26T08:58:13.829Z,98453.02
2023-04-26T09:01:27.364Z,98457.50
2023-04-26T09:04:40.877Z,98436.72
2023-04-26T09:07:55.433Z,98426.22
2023-04-26T09:11:09.339Z,98435.84
2023-04-26T09:14:21.548Z,98452.90
2023-04-26T09:17:38.429Z,98432.16
2023-04-26T09:20:51.017Z,98422.22
2023-04-26T09:24:08.253Z,98428.97
2023-04-26T09:27:21.070Z,98449.91
2023-04-26T09:30:34.014Z,98458.05
2023-04-26T09:34:04.934Z,98456.04
2023-04-26T09:37:19.089Z,98455.94
2023-04-26T09:40:32.638Z,98471.73
2023-04-26T09:43:46.800Z,98481.03
2023-04-26T09:47:13.268Z,98486.48
2023-04-26T09:50:36.382Z,98491.50
2023-04-26T09:53:51.917Z,98483.50
2023-04-26T09:57:10.248Z,98459.52
2023-04-26T10:00:25.697Z,98437.98
2023-04-26T10:03:40.402Z,98473.17
2023-04-26T10:06:52.925Z,98486.00
2023-04-26T10:10:05.380Z,98490.58
2023-04-26T10:13:21.050Z,98497.18
2023-04-26T10:16:34.895Z,98492.47
2023-04-26T10:19:49.280Z,98502.72
2023-04-26T10:23:05.167Z,98482.85
2023-04-26T10:26:49.769Z,98483.09
2023-04-26T10:30:19.665Z,98474.55
2023-04-26T10:33:32.581Z,98476.91
2023-04-26T10:37:13.263Z,98492.16
2023-04-26T10:40:36.828Z,98474.03
2023-04-26T10:43:49.044Z,98484.58
2023-04-26T10:47:01.542Z,98478.98
2023-04-26T10:50:16.407Z,98474.88
2023-04-26T10:53:28.521Z,98481.08
2023-04-26T10:57:01.409Z,98489.86
2023-04-26T11:00:36.857Z,98490.92
2023-04-26T11:04:01.838Z,98493.98
2023-04-26T11:07:14.122Z,98501.27
2023-04-26T11:10:31.800Z,98504.80
2023-04-26T11:13:47.315Z,98508.45
2023-04-26T11:17:00.146Z,98513.25
2023-04-26T11:20:21.824Z,98504.60
2023-04-26T11:23:37.562Z,98505.20
2023-04-26T11:26:58.440Z,98499.27
2023-04-26T11:30:15.646Z,98481.77
2023-04-26T11:33:29.214Z,98476.22
2023-04-26T11:36:44.742Z,98471.83
2023-04-26T11:39:56.902Z,98479.78
2023-04-26T11:43:10.690Z,98493.63
2023-04-26T11:46:24.774Z,98504.28
2023-04-26T11:49:38.260Z,98514.92
2023-04-26T11:52:50.766Z,98512.04
2023-04-26T11:56:03.791Z,98516.86
2023-04-26T11:59:16.469Z,98502.63
2023-04-26T12:02:31.688Z,98494.13
2023-04-26T12:05:44.707Z,98493.33
2023-04-26T12:09:00.853Z,98498.89
2023-04-26T12:12:13.912Z,98508.54
2023-04-26T12:15:32.736Z,98497.55
2023-04-26T12:18:45.290Z,98488.53
2023-04-26T12:21:57.913Z,98480.72
2023-04-26T12:25:18.001Z,98480.95
2023-04-26T12:28:31.028Z,98476.30
2023-04-26T12:31:43.401Z,98483.47
2023-04-26T12:34:56.119Z,98481.66
2023-04-26T12:38:08.360Z,98487.20
2023-04-26T12:41:20.878Z,98492.81
2023-04-26T12:44:33.392Z,98515.97
2023-04-26T12:47:46.380Z,98517.83
2023-04-26T12:50:58.531Z,98521.65
2023-04-26T12:54:11.413Z,98529.16
2023-04-26T12:57:23.916Z,98529.83
2023-04-26T13:00:36.572Z,98515.70
2023-04-26T13:03:49.152Z,98524.77
2023-04-26T13:07:01.853Z,98505.86
2023-04-26T13:10:15.780Z,98506.14
2023-04-26T13:13:39.939Z,98517.55
2023-04-26T13:16:44.285Z,98524.08
2023-04-26T13:19:57.240Z,98537.55
2023-04-26T13:23:09.930Z,98555.33
2023-04-26T13:26:22.140Z,98567.96
2023-04-26T13:29:35.334Z,98567.56
2023-04-26T13:32:47.632Z,98563.49
2023-04-26T13:35:59.821Z,98549.36
2023-04-26T13:39:12.390Z,98551.76
2023-04-26T13:42:25.412Z,98545.94
2023-04-26T13:45:37.524Z,98540.95
2023-04-26T13:48:49.779Z,98546.62
2023-04-26T13:52:03.998Z,98568.88
2023-04-26T13:55:17.533Z,98578.23
2023-04-26T13:58:29.649Z,98563.63
2023-04-26T14:01:43.103Z,98563.13
2023-04-26T14:04:55.861Z,98550.97
2023-04-26T14:08:09.802Z,98543.41
2023-04-26T14:11:23.213Z,98533.92
2023-04-26T14:14:35.516Z,98543.14
2023-04-26T14:17:47.570Z,98550.59
2023-04-26T14:20:59.659Z,98554.97
2023-04-26T14:24:13.566Z,98575.70
2023-04-26T14:27:26.019Z,98578.73
2023-04-26T14:30:38.226Z,98589.77
2023-04-26T14:33:50.439Z,98591.93
2023-04-26T14:37:04.287Z,98585.56
2023-04-26T14:40:18.903Z,98563.56
2023-04-26T14:43:31.153Z,98560.03
2023-04-26T14:46:43.418Z,98551.89
2023-04-26T14:49:55.694Z,98563.32
2023-04-26T14:53:08.004Z,98557.43
2023-04-26T14:56:19.956Z,98556.63
2023-04-26T14:59:32.185Z,98556.13
2023-04-26T15:02:44.394Z,98576.45
2023-04-26T15:05:56.716Z,98580.47
2023-04-26T15:09:09.616Z,98582.31
2023-04-26T15:12:21.742Z,98601.66
2023-04-26T15:15:34.372Z,98594.98
2023-04-26T15:18:46.342Z,98593.85
2023-04-26T15:21:58.307Z,98600.63
2023-04-26T15:25:13.040Z,98591.56
2023-04-26T15:28:25.110Z,98582.78
2023-04-26T15:31:37.161Z,98584.27
2023-04-26T15:34:50.056Z,98586.33
2023-04-26T15:38:05.039Z,98591.65
2023-04-26T15:41:17.240Z,98595.83
2023-04-26T15:44:29.453Z,98603.48
2023-04-26T15:47:41.961Z,98606.18
2023-04-26T15:50:54.250Z,98606.12
2023-04-26T15:54:06.604Z,98623.30
2023-04-26T15:57:18.700Z,98626.91
2023-04-26T16:00:32.605Z,98640.80
2023-04-26T16:03:47.709Z,98641.42
2023-04-26T16:07:00.019Z,98649.39
2023-04-26T16:10:15.328Z,98656.21
2023-04-26T16:13:27.483Z,98658.18
2023-04-26T16:16:39.905Z,98663.63
2023-04-26T16:19:52.530Z,98661.25
2023-04-26T16:23:05.134Z,98667.69
2023-04-26T16:26:17.337Z,98657.33
2023-04-26T16:29:29.600Z,98655.52
2023-04-26T16:32:41.918Z,98652.75
2023-04-26T16:35:57.912Z,98651.47
2023-04-26T16:39:14.962Z,98654.28
2023-04-26T16:42:27.084Z,98655.39
2023-04-26T16:45:39.374Z,98661.39
2023-04-26T16:48:51.643Z,98663.48
2023-04-26T16:52:03.897Z,98663.49
2023-04-26T16:55:17.109Z,98671.44
2023-04-26T16:58:29.330Z,98677.59
2023-04-26T17:01:41.791Z,98679.70
2023-04-26T17:04:55.338Z,98685.81
2023-04-26T17:08:08.098Z,98698.20
2023-04-26T17:14:35.160Z,98715.33
2023-04-26T17:17:47.262Z,98732.73
2023-04-26T17:20:59.713Z,98736.03
2023-04-26T17:24:13.139Z,98755.49
2023-04-26T17:27:26.923Z,98758.38
2023-04-26T17:30:39.060Z,98753.75
2023-04-26T17:33:51.064Z,98749.41
2023-04-26T17:37:03.078Z,98751.53
2023-04-26T17:40:18.115Z,98751.62
2023-04-26T17:43:30.822Z,98739.91
2023-04-26T17:46:42.965Z,98751.91
2023-04-26T17:49:55.105Z,98749.16
2023-04-26T17:53:07.482Z,98755.27
2023-04-26T17:56:19.696Z,98757.48
2023-04-26T17:59:31.894Z,98756.30
2023-04-26T18:02:44.538Z,98754.83
2023-04-26T18:05:56.847Z,98758.19
2023-04-26T18:09:09.234Z,98763.73
2023-04-26T18:12:21.334Z,98760.45
2023-04-26T18:15:33.858Z,98777.09
2023-04-26T18:18:46.367Z,98775.81
2023-04-26T18:21:58.677Z,98775.44
2023-04-26T18:25:12.293Z,98776.22
2023-04-26T18:28:24.634Z,98786.16
2023-04-26T18:31:39.262Z,98784.50
2023-04-26T18:34:51.727Z,98789.08
2023-04-26T18:38:04.106Z,98788.95
2023-04-26T18:41:16.544Z,98792.58
2023-04-26T18:44:29.018Z,98805.09
2023-04-26T18:47:41.736Z,98807.52
2023-04-26T18:50:59.381Z,98816.28
2023-04-26T18:54:12.217Z,98813.90
2023-04-26T18:57:24.517Z,98820.85
2023-04-26T19:00:36.850Z,98819.56
2023-04-26T19:03:49.274Z,98832.55
2023-04-26T19:07:02.762Z,98830.41
2023-04-26T19:10:17.086Z,98827.18
2023-04-26T19:13:29.606Z,98835.71
2023-04-26T19:16:42.020Z,98831.90
2023-04-26T19:19:55.972Z,98838.63
2023-04-26T19:23:08.737Z,98838.17
2023-04-26T19:26:21.452Z,98844.94
2023-04-26T19:29:33.654Z,98852.38
2023-04-26T19:32:45.776Z,98850.22
2023-04-26T19:35:58.304Z,98841.70
2023-04-26T19:39:12.110Z,98849.04
2023-04-26T19:42:24.278Z,98846.62
2023-04-26T19:45:37.954Z,98850.47
2023-04-26T19:48:50.231Z,98847.10
2023-04-26T19:52:02.800Z,98851.08
2023-04-26T19:55:15.915Z,98846.15
2023-04-26T19:58:28.436Z,98860.33
2023-04-26T20:01:41.166Z,98851.91
2023-04-26T20:04:53.409Z,98864.17
2023-04-26T20:08:05.771Z,98863.58
2023-04-26T20:11:19.475Z,98866.79
2023-04-26T20:14:32.112Z,98861.16
2023-04-26T20:17:44.323Z,98854.44
2023-04-26T20:20:56.729Z,98860.56
2023-04-26T20:24:09.672Z,98869.69
2023-04-26T20:27:22.383Z,98870.75
2023-04-26T20:30:35.480Z,98869.77
2023-04-26T20:33:48.206Z,98863.89
2023-04-26T20:37:00.642Z,98869.27
2023-04-26T20:40:16.185Z,98868.55
2023-04-26T20:43:28.838Z,98864.83
2023-04-26T20:46:41.662Z,98875.84
2023-04-26T20:49:53.864Z,98879.42
2023-04-26T20:53:06.096Z,98882.52
2023-04-26T20:56:18.590Z,98878.22
2023-04-26T20:59:31.871Z,98884.68
2023-04-26T21:02:44.430Z,98873.61
2023-04-26T21:05:56.957Z,98880.19
2023-04-26T21:09:09.807Z,98888.23
2023-04-26T21:12:22.382Z,98888.69
2023-04-26T21:15:35.226Z,98895.02
2023-04-26T21:18:48.131Z,98898.63
2023-04-26T21:22:01.693Z,98892.50
2023-04-26T21:25:19.198Z,98897.16
2023-04-26T21:28:31.517Z,98899.20
2023-04-26T21:31:43.976Z,98901.19
2023-04-26T21:34:56.661Z,98908.38
2023-04-26T21:38:09.118Z,98909.91
2023-04-26T21:41:21.363Z,98913.72
2023-04-26T21:44:33.672Z,98919.20
2023-04-26T21:47:46.021Z,98915.33
2023-04-26T21:50:58.307Z,98916.27
2023-04-26T21:54:10.706Z,98922.27
2023-04-26T21:57:24.535Z,98924.70
2023-04-26T22:00:36.824Z,98923.53
2023-04-26T22:03:49.764Z,98927.63
2023-04-26T22:07:02.223Z,98925.72
2023-04-26T22:10:17.120Z,98933.11
2023-04-26T22:13:29.290Z,98931.44
2023-04-26T22:16:41.369Z,98939.47
2023-04-26T22:19:55.731Z,98940.52
2023-04-26T22:23:07.823Z,98946.43
2023-04-26T22:26:20.048Z,98938.92
2023-04-26T22:29:32.141Z,98950.23
2023-04-26T22:32:44.375Z,98950.55
2023-04-26T22:35:58.289Z,98955.30
2023-04-26T22:39:10.603Z,98959.74
2023-04-26T22:42:23.131Z,98953.50
2023-04-26T22:45:35.501Z,98952.57
2023-04-26T22:48:47.689Z,98950.87
2023-04-26T22:52:07.990Z,98955.30
2023-04-26T22:55:16.854Z,98958.16
2023-04-26T22:58:29.890Z,98955.52
2023-04-26T23:01:42.168Z,98957.92
2023-04-26T23:04:55.083Z,98975.32
2023-04-26T23:08:07.383Z,98962.27
2023-04-26T23:11:19.560Z,98968.38
2023-04-26T23:14:32.655Z,98966.68
2023-04-26T23:17:46.040Z,98971.95
2023-04-26T23:20:58.219Z,98969.94
2023-04-26T23:24:11.531Z,98973.19
2023-04-26T23:27:25.175Z,98972.29
2023-04-26T23:30:37.228Z,98976.80
2023-04-26T23:33:49.278Z,98970.91
2023-04-26T23:37:07.248Z,98979.13
2023-04-26T23:40:18.193Z,98976.60
2023-04-26T23:43:30.496Z,98977.53
2023-04-26T23:46:42.885Z,98979.35
2023-04-26T23:49:55.116Z,98978.81
2023-04-26T23:53:07.336Z,98979.78
2023-04-26T23:56:19.740Z,98987.03
2023-04-26T23:59:31.902Z,98981.98
